sensor_id;sensor_type;location;lat;lon;timestamp;pressure;altitude;pressure_sealevel;temperature;humidity
73600;BME280;61877;48.246;9.220;2023-12-20T00:00:14;94171.09;;;2.23;99.09
73600;BME280;61877;48.246;9.220;2023-12-20T00:02:40;94174.44;;;2.29;97.86
73600;BME280;61877;48.246;9.220;2023-12-20T00:05:06;94160.72;;;2.27;99.22
73600;BME280;61877;48.246;9.220;2023-12-20T00:07:32;94167.03;;;2.31;97.72
73600;BME280;61877;48.246;9.220;2023-12-20T00:09:58;94149.13;;;2.23;98.26
73600;BME280;61877;48.246;9.220;2023-12-20T00:12:24;94147.78;;;2.25;97.97
73600;BME280;61877;48.246;9.220;2023-12-20T00:14:49;94129.97;;;2.31;97.60
73600;BME280;61877;48.246;9.220;2023-12-20T00:17:14;94123.91;;;2.30;97.82
73600;BME280;61877;48.246;9.220;2023-12-20T00:19:40;94116.22;;;2.29;97.93
73600;BME280;61877;48.246;9.220;2023-12-20T00:22:05;94116.22;;;2.29;97.28
73600;BME280;61877;48.246;9.220;2023-12-20T00:24:31;94122.81;;;2.31;96.90
73600;BME280;61877;48.246;9.220;2023-12-20T00:26:58;94117.25;;;2.33;96.63
73600;BME280;61877;48.246;9.220;2023-12-20T00:29:23;94109.59;;;2.31;96.56
73600;BME280;61877;48.246;9.220;2023-12-20T00:31:49;94107.72;;;2.32;96.59
73600;BME280;61877;48.246;9.220;2023-12-20T00:34:14;94104.00;;;2.33;96.07
73600;BME280;61877;48.246;9.220;2023-12-20T00:36:40;94112.44;;;2.35;95.45
73600;BME280;61877;48.246;9.220;2023-12-20T00:39:05;94103.44;;;2.36;95.72
73600;BME280;61877;48.246;9.220;2023-12-20T00:41:30;94096.34;;;2.31;96.45
73600;BME280;61877;48.246;9.220;2023-12-20T00:43:58;94090.78;;;2.33;96.52
73600;BME280;61877;48.246;9.220;2023-12-20T00:46:24;94084.13;;;2.35;96.36
73600;BME280;61877;48.246;9.220;2023-12-20T00:48:50;94076.44;;;2.34;96.88
73600;BME280;61877;48.246;9.220;2023-12-20T00:51:15;94074.88;;;2.33;97.06
73600;BME280;61877;48.246;9.220;2023-12-20T00:53:41;94075.47;;;2.30;97.22
73600;BME280;61877;48.246;9.220;2023-12-20T00:56:06;94078.13;;;2.30;97.40
73600;BME280;61877;48.246;9.220;2023-12-20T00:58:32;94066.38;;;2.36;96.39
73600;BME280;61877;48.246;9.220;2023-12-20T01:01:00;94069.81;;;2.36;96.36
73600;BME280;61877;48.246;9.220;2023-12-20T01:03:25;94079.59;;;2.36;96.59
73600;BME280;61877;48.246;9.220;2023-12-20T01:05:50;94076.88;;;2.41;96.09
73600;BME280;61877;48.246;9.220;2023-12-20T01:08:16;94081.59;;;2.44;95.92
73600;BME280;61877;48.246;9.220;2023-12-20T01:10:41;94082.09;;;2.46;96.24
73600;BME280;61877;48.246;9.220;2023-12-20T01:13:07;94091.66;;;2.47;95.58
73600;BME280;61877;48.246;9.220;2023-12-20T01:15:32;94082.09;;;2.46;96.55
73600;BME280;61877;48.246;9.220;2023-12-20T01:17:59;94074.25;;;2.41;96.70
73600;BME280;61877;48.246;9.220;2023-12-20T01:20:24;94081.06;;;2.47;96.09
73600;BME280;61877;48.246;9.220;2023-12-20T01:22:49;94089.06;;;2.42;96.87
73600;BME280;61877;48.246;9.220;2023-12-20T01:25:15;94089.47;;;2.49;96.50
73600;BME280;61877;48.246;9.220;2023-12-20T01:27:43;94085.91;;;2.40;97.68
73600;BME280;61877;48.246;9.220;2023-12-20T01:30:09;94079.59;;;2.36;98.03
73600;BME280;61877;48.246;9.220;2023-12-20T01:32:35;94083.56;;;2.38;98.50
73600;BME280;61877;48.246;9.220;2023-12-20T01:35:02;94075.63;;;2.38;98.49
73600;BME280;61877;48.246;9.220;2023-12-20T01:37:27;94078.03;;;2.35;98.53
73600;BME280;61877;48.246;9.220;2023-12-20T01:39:52;94076.75;;;2.32;100.00
73600;BME280;61877;48.246;9.220;2023-12-20T01:42:19;94083.91;;;2.32;99.99
73600;BME280;61877;48.246;9.220;2023-12-20T01:44:44;94074.16;;;2.27;100.00
73600;BME280;61877;48.246;9.220;2023-12-20T01:47:11;94088.41;;;2.31;100.00
73600;BME280;61877;48.246;9.220;2023-12-20T01:49:37;94092.31;;;2.34;100.00
73600;BME280;61877;48.246;9.220;2023-12-20T01:52:04;94091.56;;;2.33;100.00
73600;BME280;61877;48.246;9.220;2023-12-20T01:54:30;94093.47;;;2.28;100.00
73600;BME280;61877;48.246;9.220;2023-12-20T01:56:56;94100.34;;;2.29;100.00
73600;BME280;61877;48.246;9.220;2023-12-20T01:59:22;94097.44;;;2.30;100.00
73600;BME280;61877;48.246;9.220;2023-12-20T02:01:47;94095.34;;;2.27;100.00
73600;BME280;61877;48.246;9.220;2023-12-20T02:04:13;94096.72;;;2.25;100.00
73600;BME280;61877;48.246;9.220;2023-12-20T02:06:40;94096.19;;;2.23;100.00
73600;BME280;61877;48.246;9.220;2023-12-20T02:09:07;94097.28;;;2.22;100.00
73600;BME280;61877;48.246;9.220;2023-12-20T02:11:32;94088.03;;;2.19;100.00
73600;BME280;61877;48.246;9.220;2023-12-20T02:13:58;94088.03;;;2.19;100.00
73600;BME280;61877;48.246;9.220;2023-12-20T02:16:23;94084.63;;;2.19;100.00
73600;BME280;61877;48.246;9.220;2023-12-20T02:18:49;94081.97;;;2.19;100.00
73600;BME280;61877;48.246;9.220;2023-12-20T02:21:14;94085.91;;;2.21;100.00
73600;BME280;61877;48.246;9.220;2023-12-20T02:23:42;94077.75;;;2.18;100.00
73600;BME280;61877;48.246;9.220;2023-12-20T02:26:08;94067.16;;;2.18;100.00
73600;BME280;61877;48.246;9.220;2023-12-20T02:28:33;94079.88;;;2.16;100.00
73600;BME280;61877;48.246;9.220;2023-12-20T02:30:59;94062.44;;;2.15;100.00
73600;BME280;61877;48.246;9.220;2023-12-20T02:33:25;94066.94;;;2.14;100.00
73600;BME280;61877;48.246;9.220;2023-12-20T02:35:50;94061.13;;;2.12;100.00
73600;BME280;61877;48.246;9.220;2023-12-20T02:38:16;94079.66;;;2.12;100.00
73600;BME280;61877;48.246;9.220;2023-12-20T02:40:42;94085.75;;;2.13;100.00
73600;BME280;61877;48.246;9.220;2023-12-20T02:43:08;94080.44;;;2.13;100.00
73600;BME280;61877;48.246;9.220;2023-12-20T02:45:33;94072.81;;;2.11;100.00
73600;BME280;61877;48.246;9.220;2023-12-20T02:47:59;94072.00;;;2.11;100.00
73600;BME280;61877;48.246;9.220;2023-12-20T02:50:25;94075.66;;;2.15;100.00
73600;BME280;61877;48.246;9.220;2023-12-20T02:52:50;94081.25;;;2.13;100.00
73600;BME280;61877;48.246;9.220;2023-12-20T02:55:16;94070.53;;;2.23;100.00
73600;BME280;61877;48.246;9.220;2023-12-20T02:57:42;94068.66;;;2.24;100.00
73600;BME280;61877;48.246;9.220;2023-12-20T03:00:09;94069.81;;;2.18;100.00
73600;BME280;61877;48.246;9.220;2023-12-20T03:02:35;94074.38;;;2.12;100.00
73600;BME280;61877;48.246;9.220;2023-12-20T03:05:00;94068.59;;;2.10;100.00
73600;BME280;61877;48.246;9.220;2023-12-20T03:07:25;94065.94;;;2.10;100.00
73600;BME280;61877;48.246;9.220;2023-12-20T03:09:51;94064.13;;;2.06;100.00
73600;BME280;61877;48.246;9.220;2023-12-20T03:12:16;94059.63;;;2.06;100.00
73600;BME280;61877;48.246;9.220;2023-12-20T03:14:43;94057.28;;;2.05;100.00
73600;BME280;61877;48.246;9.220;2023-12-20T03:17:08;94062.00;;;2.08;100.00
73600;BME280;61877;48.246;9.220;2023-12-20T03:19:33;94066.31;;;2.04;100.00
73600;BME280;61877;48.246;9.220;2023-12-20T03:21:59;94066.31;;;2.04;100.00
73600;BME280;61877;48.246;9.220;2023-12-20T03:24:24;94067.34;;;2.03;100.00
73600;BME280;61877;48.246;9.220;2023-12-20T03:27:02;94074.50;;;2.02;100.00
73600;BME280;61877;48.246;9.220;2023-12-20T03:29:27;94072.72;;;1.98;100.00
73600;BME280;61877;48.246;9.220;2023-12-20T03:31:54;94073.22;;;2.00;100.00
73600;BME280;61877;48.246;9.220;2023-12-20T03:34:19;94065.84;;;1.97;100.00
73600;BME280;61877;48.246;9.220;2023-12-20T03:36:45;94075.88;;;2.00;100.00
73600;BME280;61877;48.246;9.220;2023-12-20T03:39:10;94069.78;;;1.99;100.00
73600;BME280;61877;48.246;9.220;2023-12-20T03:41:35;94080.88;;;2.01;100.00
73600;BME280;61877;48.246;9.220;2023-12-20T03:44:01;94078.22;;;2.01;100.00
73600;BME280;61877;48.246;9.220;2023-12-20T03:46:26;94083.22;;;2.03;100.00
73600;BME280;61877;48.246;9.220;2023-12-20T03:48:53;94090.66;;;2.01;100.00
73600;BME280;61877;48.246;9.220;2023-12-20T03:51:19;94096.22;;;1.99;100.00
73600;BME280;61877;48.246;9.220;2023-12-20T03:53:44;94092.75;;;2.04;100.00
73600;BME280;61877;48.246;9.220;2023-12-20T03:56:09;94090.59;;;2.06;100.00
73600;BME280;61877;48.246;9.220;2023-12-20T03:58:35;94094.75;;;2.12;100.00
73600;BME280;61877;48.246;9.220;2023-12-20T04:01:00;94080.81;;;2.06;100.00
73600;BME280;61877;48.246;9.220;2023-12-20T04:03:26;94082.19;;;2.04;100.00
73600;BME280;61877;48.246;9.220;2023-12-20T04:05:52;94096.75;;;2.01;100.00
73600;BME280;61877;48.246;9.220;2023-12-20T04:08:18;94100.19;;;2.02;100.00
73600;BME280;61877;48.246;9.220;2023-12-20T04:10:43;94107.03;;;2.03;100.00
73600;BME280;61877;48.246;9.220;2023-12-20T04:13:08;94101.19;;;2.06;100.00
73600;BME280;61877;48.246;9.220;2023-12-20T04:15:34;94104.88;;;2.28;100.00
73600;BME280;61877;48.246;9.220;2023-12-20T04:18:00;94100.84;;;2.49;100.00
73600;BME280;61877;48.246;9.220;2023-12-20T04:20:26;94107.13;;;2.72;100.00
73600;BME280;61877;48.246;9.220;2023-12-20T04:22:52;94106.22;;;2.63;100.00
73600;BME280;61877;48.246;9.220;2023-12-20T04:25:18;94103.41;;;2.92;100.00
73600;BME280;61877;48.246;9.220;2023-12-20T04:27:44;94111.44;;;2.87;100.00
73600;BME280;61877;48.246;9.220;2023-12-20T04:30:10;94113.63;;;2.98;100.00
73600;BME280;61877;48.246;9.220;2023-12-20T04:32:35;94120.59;;;2.94;100.00
73600;BME280;61877;48.246;9.220;2023-12-20T04:35:01;94114.78;;;2.92;100.00
73600;BME280;61877;48.246;9.220;2023-12-20T04:37:27;94120.06;;;2.92;100.00
73600;BME280;61877;48.246;9.220;2023-12-20T04:39:54;94120.34;;;3.09;100.00
73600;BME280;61877;48.246;9.220;2023-12-20T04:42:19;94122.03;;;3.19;100.00
73600;BME280;61877;48.246;9.220;2023-12-20T04:44:48;94128.84;;;3.25;100.00
73600;BME280;61877;48.246;9.220;2023-12-20T04:47:13;94130.44;;;3.39;100.00
73600;BME280;61877;48.246;9.220;2023-12-20T04:49:39;94138.41;;;3.39;100.00
73600;BME280;61877;48.246;9.220;2023-12-20T04:52:04;94139.28;;;3.48;100.00
73600;BME280;61877;48.246;9.220;2023-12-20T04:54:30;94133.03;;;3.58;100.00
73600;BME280;61877;48.246;9.220;2023-12-20T04:56:57;94129.91;;;3.56;100.00
73600;BME280;61877;48.246;9.220;2023-12-20T04:59:22;94120.34;;;3.55;100.00
73600;BME280;61877;48.246;9.220;2023-12-20T05:01:47;94119.16;;;3.47;100.00
73600;BME280;61877;48.246;9.220;2023-12-20T05:04:13;94127.28;;;3.37;100.00
73600;BME280;61877;48.246;9.220;2023-12-20T05:06:38;94126.13;;;3.30;100.00
73600;BME280;61877;48.246;9.220;2023-12-20T05:09:04;94145.59;;;3.20;100.00
73600;BME280;61877;48.246;9.220;2023-12-20T05:11:29;94137.16;;;3.18;100.00
73600;BME280;61877;48.246;9.220;2023-12-20T05:13:59;94144.25;;;3.23;100.00
73600;BME280;61877;48.246;9.220;2023-12-20T05:16:24;94145.59;;;3.20;100.00
73600;BME280;61877;48.246;9.220;2023-12-20T05:18:50;94148.84;;;3.17;100.00
73600;BME280;61877;48.246;9.220;2023-12-20T05:21:15;94154.63;;;3.19;100.00
73600;BME280;61877;48.246;9.220;2023-12-20T05:23:40;94167.97;;;3.14;100.00
73600;BME280;61877;48.246;9.220;2023-12-20T05:26:06;94170.03;;;3.17;100.00
73600;BME280;61877;48.246;9.220;2023-12-20T05:28:31;94164.31;;;3.10;100.00
73600;BME280;61877;48.246;9.220;2023-12-20T05:30:58;94163.41;;;3.01;100.00
73600;BME280;61877;48.246;9.220;2023-12-20T05:33:23;94169.13;;;3.08;100.00
73600;BME280;61877;48.246;9.220;2023-12-20T05:35:49;94174.50;;;3.03;100.00
73600;BME280;61877;48.246;9.220;2023-12-20T05:38:14;94172.22;;;2.97;100.00
73600;BME280;61877;48.246;9.220;2023-12-20T05:40:40;94170.72;;;2.91;100.00
73600;BME280;61877;48.246;9.220;2023-12-20T05:43:05;94183.66;;;2.92;100.00
73600;BME280;61877;48.246;9.220;2023-12-20T05:45:31;94178.38;;;2.92;100.00
73600;BME280;61877;48.246;9.220;2023-12-20T05:47:59;94179.22;;;3.25;100.00
73600;BME280;61877;48.246;9.220;2023-12-20T05:50:24;94188.50;;;3.41;100.00
73600;BME280;61877;48.246;9.220;2023-12-20T05:52:50;94185.53;;;3.42;100.00
73600;BME280;61877;48.246;9.220;2023-12-20T05:55:15;94192.50;;;3.38;100.00
73600;BME280;61877;48.246;9.220;2023-12-20T05:57:44;94185.09;;;3.54;100.00
73600;BME280;61877;48.246;9.220;2023-12-20T06:00:12;94182.63;;;3.57;100.00
73600;BME280;61877;48.246;9.220;2023-12-20T06:02:37;94182.50;;;3.49;100.00
73600;BME280;61877;48.246;9.220;2023-12-20T06:05:05;94189.69;;;3.48;100.00
73600;BME280;61877;48.246;9.220;2023-12-20T06:07:32;94190.00;;;3.60;100.00
73600;BME280;61877;48.246;9.220;2023-12-20T06:09:59;94194.44;;;3.51;100.00
73600;BME280;61877;48.246;9.220;2023-12-20T06:12:24;94196.13;;;3.61;100.00
73600;BME280;61877;48.246;9.220;2023-12-20T06:14:50;94200.72;;;3.55;100.00
73600;BME280;61877;48.246;9.220;2023-12-20T06:17:15;94204.94;;;3.56;100.00
73600;BME280;61877;48.246;9.220;2023-12-20T06:19:40;94209.38;;;3.61;100.00
73600;BME280;61877;48.246;9.220;2023-12-20T06:22:07;94214.97;;;3.59;100.00
73600;BME280;61877;48.246;9.220;2023-12-20T06:24:32;94214.88;;;3.64;100.00
73600;BME280;61877;48.246;9.220;2023-12-20T06:26:58;94213.88;;;3.60;100.00
73600;BME280;61877;48.246;9.220;2023-12-20T06:29:24;94219.47;;;3.59;100.00
73600;BME280;61877;48.246;9.220;2023-12-20T06:31:49;94218.41;;;3.60;100.00
73600;BME280;61877;48.246;9.220;2023-12-20T06:34:15;94221.34;;;3.58;100.00
73600;BME280;61877;48.246;9.220;2023-12-20T06:36:41;94230.13;;;3.72;100.00
73600;BME280;61877;48.246;9.220;2023-12-20T06:39:11;94227.28;;;3.69;100.00
73600;BME280;61877;48.246;9.220;2023-12-20T06:41:37;94222.25;;;3.67;100.00
73600;BME280;61877;48.246;9.220;2023-12-20T06:44:02;94211.22;;;3.60;100.00
73600;BME280;61877;48.246;9.220;2023-12-20T06:46:28;94213.81;;;3.65;100.00
73600;BME280;61877;48.246;9.220;2023-12-20T06:48:54;94222.25;;;3.67;100.00
73600;BME280;61877;48.246;9.220;2023-12-20T06:51:20;94211.06;;;3.70;100.00
73600;BME280;61877;48.246;9.220;2023-12-20T06:53:45;94223.81;;;3.68;100.00
73600;BME280;61877;48.246;9.220;2023-12-20T06:56:12;94224.03;;;3.72;100.00
73600;BME280;61877;48.246;9.220;2023-12-20T06:58:37;94223.81;;;3.68;100.00
73600;BME280;61877;48.246;9.220;2023-12-20T07:01:03;94226.59;;;3.77;100.00
73600;BME280;61877;48.246;9.220;2023-12-20T07:03:28;94226.91;;;3.75;100.00
73600;BME280;61877;48.246;9.220;2023-12-20T07:05:54;94221.88;;;3.74;100.00
73600;BME280;61877;48.246;9.220;2023-12-20T07:08:19;94220.19;;;3.64;100.00
73600;BME280;61877;48.246;9.220;2023-12-20T07:10:45;94229.22;;;3.63;100.00
73600;BME280;61877;48.246;9.220;2023-12-20T07:13:11;94237.53;;;3.57;100.00
73600;BME280;61877;48.246;9.220;2023-12-20T07:15:37;94236.84;;;3.51;100.00
73600;BME280;61877;48.246;9.220;2023-12-20T07:18:03;94245.41;;;3.62;100.00
73600;BME280;61877;48.246;9.220;2023-12-20T07:20:28;94256.38;;;3.74;100.00
73600;BME280;61877;48.246;9.220;2023-12-20T07:22:54;94255.50;;;3.78;100.00
73600;BME280;61877;48.246;9.220;2023-12-20T07:25:20;94259.38;;;3.86;100.00
73600;BME280;61877;48.246;9.220;2023-12-20T07:27:45;94258.66;;;3.80;100.00
73600;BME280;61877;48.246;9.220;2023-12-20T07:30:13;94262.88;;;3.81;100.00
73600;BME280;61877;48.246;9.220;2023-12-20T07:32:38;94269.19;;;3.85;100.00
73600;BME280;61877;48.246;9.220;2023-12-20T07:35:04;94268.88;;;3.87;100.00
73600;BME280;61877;48.246;9.220;2023-12-20T07:37:30;94276.94;;;3.82;100.00
73600;BME280;61877;48.246;9.220;2023-12-20T07:39:55;94274.56;;;3.80;100.00
73600;BME280;61877;48.246;9.220;2023-12-20T07:42:20;94287.41;;;3.73;100.00
73600;BME280;61877;48.246;9.220;2023-12-20T07:44:46;94278.47;;;3.69;100.00
73600;BME280;61877;48.246;9.220;2023-12-20T07:47:13;94281.72;;;3.66;100.00
73600;BME280;61877;48.246;9.220;2023-12-20T07:49:38;94281.72;;;3.80;100.00
73600;BME280;61877;48.246;9.220;2023-12-20T07:52:04;94284.31;;;3.85;100.00
73600;BME280;61877;48.246;9.220;2023-12-20T07:54:30;94291.72;;;4.02;100.00
73600;BME280;61877;48.246;9.220;2023-12-20T07:56:55;94294.81;;;4.09;100.00
73600;BME280;61877;48.246;9.220;2023-12-20T07:59:21;94290.59;;;4.08;100.00
73600;BME280;61877;48.246;9.220;2023-12-20T08:01:46;94296.78;;;4.17;100.00
73600;BME280;61877;48.246;9.220;2023-12-20T08:04:13;94290.78;;;4.25;100.00
73600;BME280;61877;48.246;9.220;2023-12-20T08:06:38;94297.78;;;4.21;100.00
73600;BME280;61877;48.246;9.220;2023-12-20T08:09:04;94297.28;;;4.19;100.00
73600;BME280;61877;48.246;9.220;2023-12-20T08:11:30;94304.16;;;4.20;100.00
73600;BME280;61877;48.246;9.220;2023-12-20T08:14:01;94309.97;;;4.22;100.00
73600;BME280;61877;48.246;9.220;2023-12-20T08:16:26;94313.81;;;4.16;100.00
73600;BME280;61877;48.246;9.220;2023-12-20T08:18:52;94312.81;;;4.25;100.00
73600;BME280;61877;48.246;9.220;2023-12-20T08:21:21;94308.63;;;4.24;100.00
73600;BME280;61877;48.246;9.220;2023-12-20T08:23:47;94308.31;;;4.26;100.00
73600;BME280;61877;48.246;9.220;2023-12-20T08:26:12;94303.00;;;4.26;100.00
73600;BME280;61877;48.246;9.220;2023-12-20T08:28:37;94303.78;;;4.26;100.00
73600;BME280;61877;48.246;9.220;2023-12-20T08:31:03;94298.19;;;4.28;100.00
73600;BME280;61877;48.246;9.220;2023-12-20T08:33:29;94298.09;;;4.33;100.00
73600;BME280;61877;48.246;9.220;2023-12-20T08:35:54;94302.78;;;4.22;100.00
73600;BME280;61877;48.246;9.220;2023-12-20T08:38:21;94294.94;;;4.31;100.00
73600;BME280;61877;48.246;9.220;2023-12-20T08:40:46;94299.25;;;4.27;100.00
73600;BME280;61877;48.246;9.220;2023-12-20T08:43:12;94298.47;;;4.26;100.00
73600;BME280;61877;48.246;9.220;2023-12-20T08:45:38;94303.03;;;4.39;100.00
73600;BME280;61877;48.246;9.220;2023-12-20T08:48:03;94310.03;;;4.49;100.00
73600;BME280;61877;48.246;9.220;2023-12-20T08:50:29;94303.81;;;4.40;100.00
73600;BME280;61877;48.246;9.220;2023-12-20T08:52:55;94303.81;;;4.40;100.00
73600;BME280;61877;48.246;9.220;2023-12-20T08:55:22;94301.66;;;4.42;100.00
73600;BME280;61877;48.246;9.220;2023-12-20T08:57:47;94297.91;;;4.43;100.00
73600;BME280;61877;48.246;9.220;2023-12-20T09:00:14;94307.47;;;4.44;100.00
73600;BME280;61877;48.246;9.220;2023-12-20T09:02:39;94308.25;;;4.44;100.00
73600;BME280;61877;48.246;9.220;2023-12-20T09:05:05;94306.19;;;4.55;100.00
73600;BME280;61877;48.246;9.220;2023-12-20T09:07:30;94300.28;;;4.58;100.00
73600;BME280;61877;48.246;9.220;2023-12-20T09:09:56;94301.88;;;4.72;100.00
73600;BME280;61877;48.246;9.220;2023-12-20T09:12:22;94306.19;;;4.82;100.00
73600;BME280;61877;48.246;9.220;2023-12-20T09:14:49;94309.94;;;4.94;100.00
73600;BME280;61877;48.246;9.220;2023-12-20T09:17:14;94314.66;;;4.97;100.00
73600;BME280;61877;48.246;9.220;2023-12-20T09:19:40;94312.38;;;5.04;100.00
73600;BME280;61877;48.246;9.220;2023-12-20T09:22:05;94312.19;;;5.01;100.00
73600;BME280;61877;48.246;9.220;2023-12-20T09:24:34;94314.69;;;4.84;100.00
73600;BME280;61877;48.246;9.220;2023-12-20T09:26:59;94310.91;;;4.85;100.00
73600;BME280;61877;48.246;9.220;2023-12-20T09:29:26;94317.53;;;4.87;100.00
73600;BME280;61877;48.246;9.220;2023-12-20T09:31:52;94316.03;;;4.95;100.00
73600;BME280;61877;48.246;9.220;2023-12-20T09:34:17;94319.69;;;4.99;100.00
73600;BME280;61877;48.246;9.220;2023-12-20T09:36:42;94317.34;;;4.84;100.00
73600;BME280;61877;48.246;9.220;2023-12-20T09:39:08;94307.66;;;4.74;100.00
73600;BME280;61877;48.246;9.220;2023-12-20T09:41:37;94316.34;;;4.80;100.00
73600;BME280;61877;48.246;9.220;2023-12-20T09:44:07;94318.78;;;4.76;100.00
73600;BME280;61877;48.246;9.220;2023-12-20T09:46:37;94312.00;;;4.57;100.00
73600;BME280;61877;48.246;9.220;2023-12-20T09:49:04;94319.56;;;4.50;100.00
73600;BME280;61877;48.246;9.220;2023-12-20T09:51:31;94319.66;;;4.45;100.00
73600;BME280;61877;48.246;9.220;2023-12-20T09:53:57;94324.28;;;4.39;100.00
73600;BME280;61877;48.246;9.220;2023-12-20T09:56:25;94311.66;;;4.31;100.00
73600;BME280;61877;48.246;9.220;2023-12-20T09:58:50;94310.88;;;4.31;100.00
73600;BME280;61877;48.246;9.220;2023-12-20T10:01:16;94314.59;;;4.30;100.00
73600;BME280;61877;48.246;9.220;2023-12-20T10:03:45;94306.16;;;4.28;100.00
73600;BME280;61877;48.246;9.220;2023-12-20T10:06:10;94314.31;;;4.18;100.00
73600;BME280;61877;48.246;9.220;2023-12-20T10:08:36;94318.09;;;4.12;100.00
73600;BME280;61877;48.246;9.220;2023-12-20T10:11:01;94315.78;;;3.91;100.00
73600;BME280;61877;48.246;9.220;2023-12-20T10:13:27;94320.63;;;4.03;100.00
73600;BME280;61877;48.246;9.220;2023-12-20T10:15:52;94311.84;;;4.21;100.00
73600;BME280;61877;48.246;9.220;2023-12-20T10:18:18;94316.19;;;4.31;100.00
73600;BME280;61877;48.246;9.220;2023-12-20T10:20:45;94307.97;;;4.46;100.00
73600;BME280;61877;48.246;9.220;2023-12-20T10:23:10;94308.16;;;4.63;100.00
73600;BME280;61877;48.246;9.220;2023-12-20T10:25:36;94322.13;;;4.55;100.00
73600;BME280;61877;48.246;9.220;2023-12-20T10:28:12;94315.25;;;4.54;100.00
73600;BME280;61877;48.246;9.220;2023-12-20T10:30:38;94315.00;;;4.37;100.00
73600;BME280;61877;48.246;9.220;2023-12-20T10:33:05;94315.63;;;4.47;100.00
73600;BME280;61877;48.246;9.220;2023-12-20T10:35:31;94313.75;;;4.34;100.00
73600;BME280;61877;48.246;9.220;2023-12-20T10:38:02;94312.44;;;4.32;100.00
73600;BME280;61877;48.246;9.220;2023-12-20T10:40:29;94307.13;;;4.32;100.00
73600;BME280;61877;48.246;9.220;2023-12-20T10:42:55;94302.78;;;4.22;100.00
73600;BME280;61877;48.246;9.220;2023-12-20T10:45:21;94283.00;;;4.15;100.00
73600;BME280;61877;48.246;9.220;2023-12-20T10:47:48;94295.50;;;4.14;100.00
73600;BME280;61877;48.246;9.220;2023-12-20T10:50:14;94294.28;;;4.07;100.00
73600;BME280;61877;48.246;9.220;2023-12-20T10:52:41;94293.53;;;4.06;100.00
73600;BME280;61877;48.246;9.220;2023-12-20T10:55:09;94304.72;;;4.03;100.00
73600;BME280;61877;48.246;9.220;2023-12-20T10:57:36;94305.00;;;4.02;100.00
73600;BME280;61877;48.246;9.220;2023-12-20T11:00:02;94298.00;;;3.92;100.00
73600;BME280;61877;48.246;9.220;2023-12-20T11:02:29;94304.22;;;4.01;100.00
73600;BME280;61877;48.246;9.220;2023-12-20T11:05:05;94295.13;;;4.21;100.00
73600;BME280;61877;48.246;9.220;2023-12-20T11:07:35;94295.13;;;4.21;100.00
73600;BME280;61877;48.246;9.220;2023-12-20T11:10:19;94296.28;;;4.15;100.00
73600;BME280;61877;48.246;9.220;2023-12-20T11:12:48;94298.06;;;4.19;100.00
73600;BME280;61877;48.246;9.220;2023-12-20T11:15:15;94305.25;;;4.19;100.00
73600;BME280;61877;48.246;9.220;2023-12-20T11:17:44;94310.06;;;4.17;100.00
73600;BME280;61877;48.246;9.220;2023-12-20T11:20:10;94317.44;;;4.20;100.00
73600;BME280;61877;48.246;9.220;2023-12-20T11:22:36;94303.34;;;4.06;100.00
73600;BME280;61877;48.246;9.220;2023-12-20T11:25:04;94300.03;;;4.14;100.00
73600;BME280;61877;48.246;9.220;2023-12-20T11:27:31;94304.16;;;4.06;100.00
73600;BME280;61877;48.246;9.220;2023-12-20T11:29:58;94304.91;;;4.07;100.00
73600;BME280;61877;48.246;9.220;2023-12-20T11:32:29;94308.28;;;4.12;100.00
73600;BME280;61877;48.246;9.220;2023-12-20T11:34:55;94305.59;;;3.98;100.00
73600;BME280;61877;48.246;9.220;2023-12-20T11:37:21;94307.19;;;4.00;100.00
73600;BME280;61877;48.246;9.220;2023-12-20T11:39:54;94301.75;;;4.05;97.66
73600;BME280;61877;48.246;9.220;2023-12-20T11:42:20;94300.22;;;4.17;96.66
73600;BME280;61877;48.246;9.220;2023-12-20T11:44:50;94294.00;;;4.54;95.78
73600;BME280;61877;48.246;9.220;2023-12-20T11:47:15;94294.88;;;4.63;94.91
73600;BME280;61877;48.246;9.220;2023-12-20T11:49:41;94289.34;;;4.59;93.91
73600;BME280;61877;48.246;9.220;2023-12-20T11:52:06;94289.06;;;5.01;92.24
73600;BME280;61877;48.246;9.220;2023-12-20T11:54:32;94288.16;;;5.06;90.95
73600;BME280;61877;48.246;9.220;2023-12-20T11:56:57;94298.31;;;5.53;91.06
73600;BME280;61877;48.246;9.220;2023-12-20T11:59:23;94294.97;;;4.71;93.29
73600;BME280;61877;48.246;9.220;2023-12-20T12:01:50;94293.59;;;4.47;92.35
73600;BME280;61877;48.246;9.220;2023-12-20T12:04:16;94307.53;;;4.39;93.25
73600;BME280;61877;48.246;9.220;2023-12-20T12:06:41;94291.81;;;4.42;93.16
73600;BME280;61877;48.246;9.220;2023-12-20T12:09:07;94284.00;;;4.19;92.09
73600;BME280;61877;48.246;9.220;2023-12-20T12:11:32;94287.16;;;4.21;92.15
73600;BME280;61877;48.246;9.220;2023-12-20T12:13:58;94280.16;;;3.79;92.89
73600;BME280;61877;48.246;9.220;2023-12-20T12:16:23;94280.00;;;4.21;92.56
73600;BME280;61877;48.246;9.220;2023-12-20T12:18:56;94276.56;;;4.48;91.83
73600;BME280;61877;48.246;9.220;2023-12-20T12:21:22;94280.75;;;4.22;90.24
73600;BME280;61877;48.246;9.220;2023-12-20T12:23:47;94284.56;;;4.02;90.94
73600;BME280;61877;48.246;9.220;2023-12-20T12:26:15;94284.84;;;4.01;91.65
73600;BME280;61877;48.246;9.220;2023-12-20T12:28:41;94290.06;;;4.06;92.94
73600;BME280;61877;48.246;9.220;2023-12-20T12:31:12;94291.13;;;4.05;93.28
73600;BME280;61877;48.246;9.220;2023-12-20T12:33:38;94285.59;;;3.87;90.49
73600;BME280;61877;48.246;9.220;2023-12-20T12:36:08;94288.72;;;4.22;89.43
73600;BME280;61877;48.246;9.220;2023-12-20T12:38:34;94287.81;;;5.70;84.09
73600;BME280;61877;48.246;9.220;2023-12-20T12:41:00;94277.19;;;5.92;79.84
73600;BME280;61877;48.246;9.220;2023-12-20T12:43:25;94276.94;;;5.80;81.07
73600;BME280;61877;48.246;9.220;2023-12-20T12:45:51;94281.91;;;5.95;80.61
73600;BME280;61877;48.246;9.220;2023-12-20T12:48:16;94276.78;;;6.29;78.88
73600;BME280;61877;48.246;9.220;2023-12-20T12:50:41;94273.94;;;6.26;75.17
73600;BME280;61877;48.246;9.220;2023-12-20T12:53:08;94272.59;;;8.09;68.67
73600;BME280;61877;48.246;9.220;2023-12-20T12:55:34;94268.34;;;7.31;68.77